Time;durP1;ratioP1;P1;durP2;ratioP2;P2;SDS_P1;SDS_P2;PMS_P1;PMS_P2;Temp;Humidity;BMP_temperature;BMP_pressure;BME280_temperature;BME280_humidity;BME280_pressure;Samples;Min_cycle;Max_cycle;Signal;HPM_P1;HPM_P2
2021/01/06 00:01:51;;;;;;;77.63;70.77;;;2.90;99.90;;;;;;5102137;28;21019;-83
2021/01/06 00:04:32;;;;;;;;;;;;;;;;;;;;;
2021/01/06 00:07:02;;;;;;;82.90;75.00;;;3.00;99.90;;;;;;5102025;28;20475;-83
2021/01/06 00:09:41;;;;;;;;;;;;;;;;;;;;;
2021/01/06 00:12:49;;;;;;;;;;;;;;;;;;;;;
2021/01/06 00:15:38;;;;;;;;;;;;;;;;;;;;;
2021/01/06 00:18:09;;;;;;;81.57;73.57;;;3.00;99.90;;;;;;5073339;28;20505;-83
2021/01/06 00:20:55;;;;;;;;;;;;;;;;;;;;;
2021/01/06 00:23:32;;;;;;;96.60;88.37;;;3.00;99.90;;;;;;5110030;28;20441;-83
2021/01/06 00:26:07;;;;;;;102.93;93.23;;;3.10;99.90;;;;;;5102146;28;20440;-83
2021/01/06 00:28:35;;;;;;;102.80;93.80;;;3.10;99.90;;;;;;5097102;28;20484;-83
2021/01/06 00:31:19;;;;;;;106.93;97.77;;;3.10;99.90;;;;;;5096645;28;20531;-83
2021/01/06 00:37:08;;;;;;;;;;;;;;;;;;;;;
2021/01/06 00:42:45;;;;;;;73.80;67.63;;;3.10;99.90;;;;;;5103993;28;20922;-83
2021/01/06 00:45:41;;;;;;;88.30;81.50;;;3.10;99.90;;;;;;5089572;28;20477;-83
2021/01/06 00:48:24;;;;;;;63.63;59.40;;;3.10;99.90;;;;;;4988427;28;20473;-83
2021/01/06 00:51:40;;;;;;;75.30;68.77;;;3.20;99.90;;;;;;5080217;28;20797;-82
2021/01/06 00:54:18;;;;;;;59.70;55.03;;;3.20;99.90;;;;;;4995628;28;20435;-83
2021/01/06 01:09:26;;;;;;;;;;;;;;;;;;;;;
2021/01/06 01:12:22;;;;;;;64.10;58.97;;;3.20;99.90;;;;;;5033568;28;20486;-83
2021/01/06 01:15:15;;;;;;;;;;;;;;;;;;;;;
2021/01/06 01:21:33;;;;;;;;;;;;;;;;;;;;;
2021/01/06 01:24:21;;;;;;;65.87;60.87;;;3.20;99.90;;;;;;4977291;28;20482;-83
2021/01/06 01:30:50;;;;;;;;;;;;;;;;;;;;;
2021/01/06 01:34:01;;;;;;;;;;;;;;;;;;;;;
2021/01/06 01:37:09;;;;;;;98.20;90.90;;;3.40;99.90;;;;;;5049188;28;20462;-83
2021/01/06 01:43:32;;;;;;;65.03;60.93;;;3.30;99.90;;;;;;4954028;28;20460;-83
2021/01/06 01:47:02;;;;;;;82.10;76.00;;;3.30;99.90;;;;;;4942420;28;20501;-83
2021/01/06 01:50:09;;;;;;;;;;;;;;;;;;;;;
2021/01/06 01:56:43;;;;;;;;;;;;;;;;;;;;;
2021/01/06 01:59:45;;;;;;;70.33;66.27;;;3.50;99.90;;;;;;4977104;28;20471;-83
2021/01/06 02:02:34;;;;;;;81.47;76.80;;;3.40;99.90;;;;;;4949636;28;20455;-83
2021/01/06 02:05:14;;;;;;;82.30;76.93;;;3.50;99.90;;;;;;4969486;28;20443;-83
2021/01/06 02:08:16;;;;;;;;;;;;;;;;;;;;;
2021/01/06 02:14:06;;;;;;;105.00;98.17;;;3.50;99.90;;;;;;5005357;28;20468;-83
2021/01/06 02:20:31;;;;;;;;;;;;;;;;;;;;;
2021/01/06 02:23:31;;;;;;;83.33;78.27;;;3.50;99.90;;;;;;5021107;28;20959;-83
2021/01/06 02:32:21;;;;;;;85.17;79.97;;;3.60;99.90;;;;;;4938003;28;20462;-83
2021/01/06 02:35:16;;;;;;;;;;;;;;;;;;;;;
2021/01/06 02:37:52;;;;;;;89.57;84.00;;;3.50;99.90;;;;;;4887103;29;20496;-83
2021/01/06 02:40:19;;;;;;;89.67;84.03;;;3.50;99.90;;;;;;4951115;28;20460;-83
2021/01/06 02:42:53;;;;;;;90.37;84.67;;;3.50;99.90;;;;;;4940830;28;20466;-83
2021/01/06 02:45:56;;;;;;;76.73;72.40;;;3.50;99.90;;;;;;4944960;28;20460;-83
2021/01/06 02:48:37;;;;;;;82.67;77.37;;;3.50;99.90;;;;;;4896429;29;20462;-83
2021/01/06 02:51:20;;;;;;;88.10;82.83;;;3.50;99.90;;;;;;4957825;28;20462;-83
2021/01/06 02:57:17;;;;;;;87.50;82.40;;;3.60;99.90;;;;;;5010844;28;20467;-83
2021/01/06 03:00:13;;;;;;;89.50;83.40;;;3.60;99.90;;;;;;5014251;28;20484;-83
2021/01/06 03:02:46;;;;;;;99.60;92.77;;;3.70;99.90;;;;;;5033826;28;20539;-83
2021/01/06 03:05:47;;;;;;;;;;;;;;;;;;;;;
2021/01/06 03:08:38;;;;;;;108.60;101.17;;;3.60;99.90;;;;;;5053143;28;20911;-82
2021/01/06 03:11:27;;;;;;;112.67;105.87;;;3.60;99.90;;;;;;5053402;28;20447;-83
2021/01/06 03:14:00;;;;;;;102.90;96.67;;;3.60;99.90;;;;;;5068306;28;20443;-83
2021/01/06 03:16:33;;;;;;;106.53;100.33;;;3.60;99.90;;;;;;5066528;28;20824;-82
2021/01/06 03:19:21;;;;;;;100.33;93.57;;;3.70;99.90;;;;;;5053255;28;20872;-83
2021/01/06 03:21:49;;;;;;;111.77;105.03;;;3.60;99.90;;;;;;5061048;28;20512;-83
2021/01/06 03:24:27;;;;;;;113.37;106.80;;;3.60;99.90;;;;;;5073085;28;20493;-83
2021/01/06 03:27:01;;;;;;;113.37;106.60;;;3.50;99.90;;;;;;5071145;28;20458;-82
2021/01/06 03:29:32;;;;;;;113.23;106.20;;;3.60;99.90;;;;;;5072725;28;20488;-82
2021/01/06 03:32:04;;;;;;;103.40;97.47;;;3.60;99.90;;;;;;5057675;28;20446;-82
2021/01/06 03:34:44;;;;;;;102.50;96.90;;;3.60;99.90;;;;;;5064290;28;20497;-82
2021/01/06 03:37:15;;;;;;;111.37;104.57;;;3.70;99.90;;;;;;5057697;28;20475;-83
2021/01/06 03:39:56;;;;;;;104.00;97.40;;;3.70;99.90;;;;;;5071347;28;20458;-82
2021/01/06 03:42:27;;;;;;;110.57;103.77;;;3.60;99.90;;;;;;5056995;28;20554;-82
2021/01/06 03:44:56;;;;;;;113.83;107.03;;;3.60;99.90;;;;;;5069822;28;20495;-83
2021/01/06 03:47:31;;;;;;;107.67;101.20;;;3.70;99.90;;;;;;5064507;28;20579;-82
2021/01/06 03:50:15;;;;;;;116.40;109.57;;;3.60;99.90;;;;;;5056414;28;20442;-81
2021/01/06 03:52:51;;;;;;;112.10;105.77;;;3.70;99.90;;;;;;5052827;28;20451;-82
2021/01/06 03:55:32;;;;;;;120.67;113.37;;;3.50;99.90;;;;;;5069802;28;20537;-82
2021/01/06 03:58:02;;;;;;;125.97;118.67;;;3.60;99.90;;;;;;5054178;28;20478;-81
2021/01/06 04:00:38;;;;;;;113.87;107.80;;;3.50;99.90;;;;;;5051625;28;20463;-82
2021/01/06 04:03:11;;;;;;;108.37;101.80;;;3.60;99.90;;;;;;5052794;28;20447;-82
2021/01/06 04:05:38;;;;;;;87.27;82.97;;;3.60;99.90;;;;;;5052695;28;20459;-82
2021/01/06 04:08:10;;;;;;;100.23;94.63;;;3.60;99.90;;;;;;5069790;28;20447;-82
2021/01/06 04:10:43;;;;;;;98.30;92.97;;;3.60;99.90;;;;;;5072429;28;20554;-81
2021/01/06 04:13:10;;;;;;;98.47;92.47;;;3.60;99.90;;;;;;5054916;28;20467;-82
2021/01/06 04:15:38;;;;;;;77.90;73.10;;;3.60;99.90;;;;;;5051377;28;20463;-82
2021/01/06 04:18:05;;;;;;;91.47;85.67;;;3.60;99.90;;;;;;5052696;28;21009;-82
2021/01/06 04:20:34;;;;;;;73.90;70.00;;;3.70;99.90;;;;;;5055886;28;20821;-82
2021/01/06 04:23:06;;;;;;;75.87;71.17;;;3.60;99.90;;;;;;5072580;28;20836;-81
2021/01/06 04:25:34;;;;;;;83.93;78.40;;;3.70;99.90;;;;;;5069273;28;20487;-81
2021/01/06 04:28:04;;;;;;;78.93;73.80;;;3.60;99.90;;;;;;5052436;28;20973;-81
2021/01/06 04:30:34;;;;;;;73.33;68.30;;;3.60;99.90;;;;;;5053247;28;20479;-82
2021/01/06 04:33:03;;;;;;;80.83;75.27;;;3.70;99.90;;;;;;5063092;28;20447;-83
2021/01/06 04:35:30;;;;;;;64.17;59.50;;;3.70;99.90;;;;;;5053262;28;20513;-81
2021/01/06 04:37:57;;;;;;;56.70;53.33;;;3.70;99.90;;;;;;5072181;28;20487;-81
2021/01/06 04:40:27;;;;;;;64.80;60.27;;;3.60;99.90;;;;;;5061650;28;20906;-80
2021/01/06 04:43:00;;;;;;;79.90;74.07;;;3.70;99.90;;;;;;5071560;28;20473;-81
2021/01/06 04:45:35;;;;;;;71.90;67.60;;;3.60;99.90;;;;;;5074717;28;20453;-80
2021/01/06 04:48:44;;;;;;;77.97;72.80;;;3.70;99.90;;;;;;5075898;28;20469;-81
2021/01/06 04:51:23;;;;;;;56.53;52.90;;;3.60;99.90;;;;;;5076099;28;20512;-81
2021/01/06 04:54:22;;;;;;;65.00;60.00;;;3.60;99.90;;;;;;5076001;28;20458;-82
2021/01/06 04:57:28;;;;;;;59.97;55.77;;;3.60;99.90;;;;;;5052142;28;20479;-82
2021/01/06 05:00:08;;;;;;;71.03;65.90;;;3.60;99.90;;;;;;5054477;28;20547;-81
2021/01/06 05:03:03;;;;;;;64.13;59.87;;;3.60;99.90;;;;;;5055817;28;20455;-81
2021/01/06 05:05:52;;;;;;;58.20;54.67;;;3.60;99.90;;;;;;5067010;28;20464;-81
2021/01/06 05:08:26;;;;;;;66.47;61.57;;;3.60;99.90;;;;;;5075605;28;20501;-81
2021/01/06 05:10:59;;;;;;;64.90;60.57;;;3.60;99.90;;;;;;5061348;28;20455;-81
2021/01/06 05:13:33;;;;;;;64.37;59.37;;;3.60;99.90;;;;;;5055680;28;20543;-81
2021/01/06 05:16:07;;;;;;;64.43;59.43;;;3.60;99.90;;;;;;5068232;28;20522;-82
2021/01/06 05:18:34;;;;;;;72.07;66.77;;;3.60;99.90;;;;;;5075465;28;20517;-81
2021/01/06 05:21:13;;;;;;;68.83;64.03;;;3.50;99.90;;;;;;5061757;28;20854;-82
2021/01/06 05:23:42;;;;;;;55.27;51.67;;;3.60;99.90;;;;;;5055315;28;20455;-81
2021/01/06 05:26:11;;;;;;;60.87;56.40;;;3.60;99.90;;;;;;5069380;28;20831;-82
2021/01/06 05:28:38;;;;;;;60.03;55.80;;;3.50;99.90;;;;;;5075407;28;20853;-81
2021/01/06 05:31:06;;;;;;;72.23;66.47;;;3.50;99.90;;;;;;5060717;28;20856;-81
2021/01/06 05:33:40;;;;;;;60.87;56.87;;;3.60;99.90;;;;;;5055139;28;20447;-81
2021/01/06 05:36:25;;;;;;;61.67;57.13;;;3.60;99.90;;;;;;5067649;28;20455;-82
2021/01/06 05:38:53;;;;;;;55.57;51.60;;;3.50;99.90;;;;;;5064338;28;20479;-81
2021/01/06 05:41:20;;;;;;;53.77;49.80;;;3.50;99.90;;;;;;5054958;28;20451;-82
2021/01/06 05:43:53;;;;;;;50.63;46.83;;;3.60;99.90;;;;;;5063127;28;20805;-82
2021/01/06 05:46:25;;;;;;;49.20;45.63;;;3.50;99.90;;;;;;5053783;28;20452;-83
2021/01/06 05:48:57;;;;;;;52.50;48.00;;;3.50;99.90;;;;;;5062443;28;20511;-81
2021/01/06 05:51:30;;;;;;;49.33;45.40;;;3.50;99.90;;;;;;5065712;28;20546;-81
2021/01/06 05:54:00;;;;;;;55.17;50.97;;;3.50;99.90;;;;;;5072026;28;20547;-82
2021/01/06 05:56:57;;;;;;;53.33;49.43;;;3.50;99.90;;;;;;5070244;28;20455;-81
2021/01/06 06:00:18;;;;;;;35.57;33.03;;;3.50;99.90;;;;;;5054676;28;20459;-81
2021/01/06 06:02:51;;;;;;;34.40;31.73;;;3.50;99.90;;;;;;5049709;28;20462;-81
2021/01/06 06:05:35;;;;;;;33.20;30.43;;;3.60;99.90;;;;;;5054460;28;20542;-80
2021/01/06 06:08:16;;;;;;;32.83;30.70;;;3.50;99.90;;;;;;5054516;28;20539;-80
2021/01/06 06:10:59;;;;;;;38.23;34.73;;;3.50;99.90;;;;;;5065948;28;20446;-81
2021/01/06 06:13:51;;;;;;;37.37;34.53;;;3.60;99.90;;;;;;5074477;28;20465;-82
2021/01/06 06:16:35;;;;;;;37.67;34.53;;;3.60;99.90;;;;;;5057409;28;20459;-81
2021/01/06 06:19:20;;;;;;;38.80;35.60;;;3.50;99.90;;;;;;5054223;28;20511;-81
2021/01/06 06:21:59;;;;;;;37.97;34.67;;;3.60;99.90;;;;;;5073356;28;20454;-81
2021/01/06 06:24:38;;;;;;;35.47;32.87;;;3.50;99.90;;;;;;5061365;28;20498;-80
2021/01/06 06:27:29;;;;;;;41.37;37.70;;;3.50;99.90;;;;;;5054120;28;20458;-81
2021/01/06 06:30:18;;;;;;;38.37;35.53;;;3.50;99.90;;;;;;5068912;28;20478;-81
2021/01/06 06:32:48;;;;;;;36.77;33.77;;;3.50;99.90;;;;;;5074055;28;20607;-81
2021/01/06 06:35:21;;;;;;;42.70;38.90;;;3.40;99.90;;;;;;5073617;28;20953;-81
2021/01/06 06:37:51;;;;;;;35.73;32.70;;;3.30;99.90;;;;;;5073886;28;20521;-81
2021/01/06 06:40:18;;;;;;;32.53;29.80;;;3.20;99.90;;;;;;5056047;28;20439;-81
2021/01/06 06:42:56;;;;;;;35.97;32.47;;;3.10;99.90;;;;;;5054081;28;20568;-80
2021/01/06 06:45:36;;;;;;;34.00;30.70;;;3.00;99.90;;;;;;5070025;28;21010;-80
2021/01/06 06:48:15;;;;;;;34.57;31.23;;;3.00;99.90;;;;;;5073654;28;20497;-81
2021/01/06 06:50:52;;;;;;;37.47;34.27;;;2.90;99.90;;;;;;5054128;28;20455;-81
2021/01/06 06:53:36;;;;;;;36.00;32.80;;;2.70;99.90;;;;;;5071815;28;20442;-81
2021/01/06 06:59:01;;;;;;;34.90;31.90;;;2.60;99.90;;;;;;5047604;28;20523;-81
2021/01/06 07:01:37;;;;;;;37.10;33.40;;;2.50;99.90;;;;;;5072130;28;20520;-81
2021/01/06 07:04:24;;;;;;;34.00;30.90;;;2.40;99.90;;;;;;5070344;28;20513;-84
2021/01/06 07:06:54;;;;;;;43.13;39.47;;;2.50;99.90;;;;;;5052893;28;20455;-81
2021/01/06 07:09:28;;;;;;;41.03;37.33;;;2.30;99.90;;;;;;5057748;28;20482;-82
2021/01/06 07:12:02;;;;;;;33.53;30.60;;;2.30;99.90;;;;;;5073244;28;20450;-81
2021/01/06 07:14:38;;;;;;;41.03;37.03;;;2.30;99.90;;;;;;5067858;28;20860;-81
2021/01/06 07:17:11;;;;;;;41.43;37.93;;;2.20;99.90;;;;;;5056763;28;20446;-81
2021/01/06 07:19:56;;;;;;;45.93;41.63;;;2.10;99.90;;;;;;5065958;28;20447;-83
2021/01/06 07:22:30;;;;;;;47.43;43.53;;;2.10;99.90;;;;;;5072302;28;20450;-81
2021/01/06 07:25:07;;;;;;;52.97;49.43;;;1.80;99.90;;;;;;5073114;28;21014;-81
2021/01/06 07:27:35;;;;;;;62.37;57.27;;;1.80;99.90;;;;;;5064883;28;20539;-80
2021/01/06 07:30:21;;;;;;;;;;;;;;;;;;;;;
2021/01/06 07:32:49;;;;;;;35.03;32.33;;;1.80;99.90;;;;;;5058295;28;20446;-80
2021/01/06 07:35:42;;;;;;;47.47;44.33;;;1.80;99.90;;;;;;5072931;28;20480;-81
2021/01/06 07:38:23;;;;;;;49.17;44.97;;;1.70;99.90;;;;;;5061364;28;20479;-81
2021/01/06 07:41:03;;;;;;;56.23;51.63;;;1.70;99.90;;;;;;5052906;28;20471;-80
2021/01/06 07:43:44;;;;;;;62.87;57.53;;;1.80;99.90;;;;;;5066195;28;20454;-82
2021/01/06 07:46:21;;;;;;;53.97;48.97;;;1.90;99.90;;;;;;5071765;28;20541;-81
2021/01/06 07:48:59;;;;;;;65.27;59.73;;;1.80;99.90;;;;;;5057145;28;20452;-81
2021/01/06 07:51:34;;;;;;;70.70;65.10;;;1.70;99.90;;;;;;5052747;28;20447;-81
2021/01/06 07:54:23;;;;;;;82.77;76.80;;;1.50;99.90;;;;;;5068966;28;20528;-82
2021/01/06 07:57:23;;;;;;;85.50;79.30;;;1.40;99.90;;;;;;5072890;28;20471;-82
2021/01/06 07:59:57;;;;;;;95.07;88.50;;;1.10;99.90;;;;;;5048246;28;20585;-82
2021/01/06 08:05:32;;;;;;;100.77;94.07;;;0.80;99.90;;;;;;5065327;28;20443;-82
2021/01/06 08:08:30;;;;;;;100.47;93.80;;;0.70;99.90;;;;;;5055435;28;20965;-82
2021/01/06 08:11:16;;;;;;;94.30;87.67;;;1.10;99.90;;;;;;4999362;28;20453;-80
2021/01/06 08:14:02;;;;;;;90.97;84.30;;;1.10;99.90;;;;;;5016177;28;20449;-81
2021/01/06 08:16:40;;;;;;;81.38;75.72;;;1.20;99.90;;;;;;5009570;28;20229;-81
2021/01/06 08:19:32;;;;;;;105.43;98.43;;;1.20;99.90;;;;;;5029131;28;20735;-81
2021/01/06 08:22:03;;;;;;;97.80;91.37;;;1.30;99.90;;;;;;5075116;28;20242;-81
2021/01/06 08:24:44;;;;;;;98.13;91.17;;;1.40;99.90;;;;;;5073797;28;20820;-84
2021/01/06 08:27:16;;;;;;;106.23;99.70;;;1.40;99.90;;;;;;5075005;28;20458;-81
2021/01/06 08:29:42;;;;;;;120.27;112.87;;;1.30;99.90;;;;;;5058624;28;20811;-76
2021/01/06 08:32:44;;;;;;;;;;;;;;;;;;;;;
2021/01/06 08:35:22;;;;;;;117.30;109.50;;;1.30;99.90;;;;;;5068885;28;20442;-81
2021/01/06 08:38:00;;;;;;;123.80;115.00;;;1.20;99.90;;;;;;5074796;28;20469;-81
2021/01/06 08:43:38;;;;;;;122.43;115.20;;;1.30;99.90;;;;;;5064410;28;20450;-81
2021/01/06 08:46:25;;;;;;;122.47;114.87;;;1.40;99.90;;;;;;5073133;28;20454;-80
2021/01/06 08:49:28;;;;;;;132.57;124.10;;;1.50;99.90;;;;;;5074565;28;21008;-81
2021/01/06 08:51:57;;;;;;;127.67;119.50;;;1.60;99.90;;;;;;5074592;28;20449;-81
2021/01/06 08:54:33;;;;;;;131.37;123.20;;;1.50;99.90;;;;;;5075646;28;20446;-81
2021/01/06 08:57:12;;;;;;;129.60;121.20;;;1.50;99.90;;;;;;5075732;28;20469;-81
2021/01/06 08:59:59;;;;;;;133.47;125.40;;;1.50;99.90;;;;;;5076052;28;20496;-81
2021/01/06 09:02:39;;;;;;;139.07;130.80;;;1.60;99.90;;;;;;5033275;28;20879;-81
2021/01/06 09:05:50;;;;;;;148.77;139.27;;;1.50;99.90;;;;;;5033736;28;20530;-81
2021/01/06 09:08:37;;;;;;;142.50;133.73;;;1.40;99.90;;;;;;5023482;28;21024;-81
2021/01/06 09:11:21;;;;;;;144.83;135.63;;;1.30;99.90;;;;;;5033599;28;20452;-81
2021/01/06 09:13:54;;;;;;;142.07;132.63;;;1.30;99.90;;;;;;5033710;28;20561;-81
2021/01/06 09:16:28;;;;;;;144.23;135.30;;;1.30;99.90;;;;;;5032379;28;20517;-81
2021/01/06 09:19:01;;;;;;;148.93;139.53;;;1.30;99.90;;;;;;5041521;28;20512;-82
2021/01/06 09:21:39;;;;;;;151.37;142.27;;;1.30;99.90;;;;;;5075448;28;20450;-82
2021/01/06 09:24:46;;;;;;;152.75;142.95;;;1.30;99.90;;;;;;5075454;28;20560;-82
2021/01/06 09:27:33;;;;;;;152.23;142.20;;;1.20;99.90;;;;;;5067366;28;20615;-82
2021/01/06 09:30:23;;;;;;;149.37;138.37;;;1.20;99.90;;;;;;5073736;28;20485;-82
2021/01/06 09:33:16;;;;;;;148.97;138.70;;;1.10;99.90;;;;;;5075320;28;20451;-83
2021/01/06 09:35:57;;;;;;;152.73;142.80;;;1.10;99.90;;;;;;5071666;28;20463;-82
2021/01/06 09:42:32;;;;;;;163.73;152.10;;;1.30;99.90;;;;;;4878115;29;20476;-82
2021/01/06 10:19:16;;;;;;;141.77;132.27;;;3.40;99.90;;;;;;4808188;29;20496;-82
2021/01/06 10:21:59;;;;;;;135.60;126.63;;;3.50;99.90;;;;;;4920394;28;20464;-82
2021/01/06 10:24:52;;;;;;;111.30;103.23;;;3.50;99.90;;;;;;4953835;28;20858;-82
2021/01/06 10:27:58;;;;;;;100.23;93.37;;;3.50;99.90;;;;;;4942711;28;20501;-83
2021/01/06 10:30:30;;;;;;;102.27;94.10;;;3.60;99.90;;;;;;4967165;28;20506;-82
2021/01/06 10:33:16;;;;;;;92.67;85.93;;;3.70;99.90;;;;;;4973160;28;20848;-82
2021/01/06 10:39:23;;;;;;;87.87;79.97;;;3.70;99.90;;;;;;4948108;28;20583;-82
2021/01/06 10:42:41;;;;;;;74.03;68.67;;;3.80;99.90;;;;;;4972321;28;21068;-83
2021/01/06 10:45:49;;;;;;;71.80;66.10;;;3.80;99.90;;;;;;5002043;28;20954;-82
2021/01/06 10:52:29;;;;;;;57.83;52.43;;;4.00;99.90;;;;;;5053604;28;20841;-83
2021/01/06 10:59:05;;;;;;;;;;;;;;;;;;;;;
2021/01/06 11:05:39;;;;;;;;;;;;;;;;;;;;;
2021/01/06 11:08:53;;;;;;;40.37;36.10;;;4.30;99.90;;;;;;5007328;28;20932;-83
2021/01/06 11:36:02;;;;;;;41.57;27.40;;;3.90;99.90;;;;;;5015449;28;20946;-82
2021/01/06 11:38:57;;;;;;;35.90;24.60;;;3.90;99.90;;;;;;4987326;28;20986;-82
2021/01/06 11:46:16;;;;;;;46.10;27.67;;;3.90;99.90;;;;;;4856536;29;20452;-85
2021/01/06 11:49:36;;;;;;;39.73;25.00;;;3.80;98.90;;;;;;4786912;29;20472;-83
2021/01/06 11:56:08;;;;;;;;;;;;;;;;;;;;;
2021/01/06 11:59:30;;;;;;;34.17;21.47;;;3.70;98.90;;;;;;4938708;28;20553;-83
2021/01/06 12:02:52;;;;;;;27.33;19.40;;;3.80;99.40;;;;;;5007992;28;21043;-82
2021/01/06 12:05:48;;;;;;;;;;;;;;;;;;;;;
2021/01/06 12:22:21;;;;;;;44.03;24.13;;;3.90;93.60;;;;;;4891784;29;20456;-83
2021/01/06 12:25:45;;;;;;;;;;;;;;;;;;;;;
2021/01/06 12:28:49;;;;;;;27.73;16.70;;;3.90;90.30;;;;;;4947705;29;20482;-83
2021/01/06 12:34:57;;;;;;;;;;;;;;;;;;;;;
2021/01/06 12:41:03;;;;;;;45.07;26.97;;;3.90;88.40;;;;;;4875439;29;20856;-82
2021/01/06 12:43:54;;;;;;;30.93;19.53;;;3.90;84.50;;;;;;4876618;29;20534;-84
2021/01/06 12:46:58;;;;;;;44.03;26.33;;;4.00;83.30;;;;;;4875267;29;20455;-83
2021/01/06 12:50:15;;;;;;;;;;;;;;;;;;;;;
2021/01/06 12:53:23;;;;;;;38.37;19.13;;;4.20;87.70;;;;;;4951920;29;20462;-83
2021/01/06 12:56:35;;;;;;;;;;;;;;;;;;;;;
2021/01/06 12:59:26;;;;;;;34.43;22.07;;;4.10;75.90;;;;;;4862188;29;20515;-84
2021/01/06 13:02:54;;;;;;;;;;;;;;;;;;;;;
2021/01/06 13:05:50;;;;;;;34.67;21.30;;;4.20;77.10;;;;;;4835604;29;20910;-84
2021/01/06 13:08:44;;;;;;;30.80;18.23;;;4.20;82.00;;;;;;4898640;29;20902;-85
2021/01/06 13:12:04;;;;;;;;;;;;;;;;;;;;;
2021/01/06 13:14:55;;;;;;;42.03;26.57;;;4.10;78.60;;;;;;4955097;28;20448;-84
2021/01/06 13:18:31;;;;;;;;;;;;;;;;;;;;;
2021/01/06 13:21:22;;;;;;;34.27;16.23;;;3.90;84.90;;;;;;4840626;29;20469;-82
2021/01/06 13:27:47;;;;;;;;;;;;;;;;;;;;;
2021/01/06 13:33:43;;;;;;;36.50;20.63;;;3.40;93.90;;;;;;4956278;28;20457;-81
2021/01/06 13:36:44;;;;;;;57.37;24.07;;;3.40;97.30;;;;;;5014325;28;20515;-82
2021/01/06 13:39:33;;;;;;;40.13;23.33;;;3.30;97.10;;;;;;5015693;28;20517;-81
2021/01/06 13:42:30;;;;;;;;;;;;;;;;;;;;;
2021/01/06 13:45:42;;;;;;;26.37;17.33;;;3.40;97.20;;;;;;5013167;28;20464;-83
2021/01/06 13:49:04;;;;;;;;;;;;;;;;;;;;;
2021/01/06 13:55:37;;;;;;;;;;;;;;;;;;;;;
2021/01/06 14:01:53;;;;;;;37.50;23.90;;;3.30;95.50;;;;;;4963153;28;21008;-82
2021/01/06 14:04:53;;;;;;;;;;;;;;;;;;;;;
2021/01/06 14:07:40;;;;;;;36.63;23.03;;;3.30;96.20;;;;;;4906556;29;20457;-81
2021/01/06 14:10:40;;;;;;;41.33;23.10;;;3.20;95.40;;;;;;4914373;29;20485;-82
2021/01/06 14:13:55;;;;;;;20.07;12.37;;;3.30;95.00;;;;;;4914493;29;20594;-82
2021/01/06 14:17:09;;;;;;;;;;;;;;;;;;;;;
2021/01/06 14:20:00;;;;;;;33.27;21.53;;;3.30;96.80;;;;;;4948418;29;20494;-85
2021/01/06 14:27:14;;;;;;;36.43;18.93;;;3.20;94.30;;;;;;4893888;29;20548;-83
2021/01/06 14:34:02;;;;;;;;;;;;;;;;;;;;;
2021/01/06 14:46:36;;;;;;;;;;;;;;;;;;;;;
2021/01/06 15:02:45;;;;;;;;;;;;;;;;;;;;;
2021/01/06 15:09:20;;;;;;;34.20;23.27;;;2.80;99.90;;;;;;4822867;29;20462;-83
2021/01/06 15:12:24;;;;;;;36.87;21.03;;;2.80;99.90;;;;;;4896355;29;20463;-83
2021/01/06 15:15:12;;;;;;;37.50;21.20;;;2.80;99.90;;;;;;4941350;29;20987;-81
2021/01/06 15:20:55;;;;;;;38.00;23.43;;;2.70;99.90;;;;;;4987510;28;20444;-81
2021/01/06 15:26:50;;;;;;;40.57;25.60;;;2.60;99.90;;;;;;4989865;28;20478;-85
2021/01/06 15:29:24;;;;;;;42.53;25.30;;;2.70;99.90;;;;;;4992237;28;21024;-80
2021/01/06 15:32:03;;;;;;;38.63;26.63;;;2.60;99.90;;;;;;4993553;28;20457;-87
2021/01/06 15:34:31;;;;;;;32.57;22.30;;;2.60;99.90;;;;;;5012391;28;20453;-84
2021/01/06 15:37:34;;;;;;;43.43;29.90;;;2.50;99.90;;;;;;5011989;28;20511;-81
2021/01/06 15:40:22;;;;;;;38.40;26.07;;;2.50;99.90;;;;;;5013071;28;20477;-83
2021/01/06 15:42:53;;;;;;;39.60;26.90;;;2.50;99.90;;;;;;5013282;28;20461;-81
2021/01/06 15:45:28;;;;;;;44.67;27.43;;;2.40;99.90;;;;;;5011968;28;20527;-81
2021/01/06 15:54:14;;;;;;;39.70;27.97;;;2.30;99.90;;;;;;5011540;28;20445;-82
2021/01/06 15:56:49;;;;;;;37.17;29.57;;;2.30;99.90;;;;;;5013332;28;20539;-83
2021/01/06 15:59:34;;;;;;;38.37;28.30;;;2.20;99.90;;;;;;5013165;28;20566;-81
2021/01/06 16:02:02;;;;;;;43.10;33.80;;;2.20;99.90;;;;;;5011691;28;20564;-81
2021/01/06 16:04:40;;;;;;;38.83;33.67;;;2.20;99.90;;;;;;5012924;28;20481;-81
2021/01/06 16:07:14;;;;;;;39.90;34.57;;;2.20;99.90;;;;;;5012993;28;20515;-81
2021/01/06 16:09:46;;;;;;;38.67;34.57;;;2.20;99.90;;;;;;5013071;28;20515;-81
2021/01/06 16:12:19;;;;;;;39.67;35.40;;;2.20;99.90;;;;;;5013150;28;20464;-81
2021/01/06 16:14:54;;;;;;;40.50;36.03;;;2.10;99.90;;;;;;5013060;28;20940;-81
2021/01/06 16:17:42;;;;;;;44.67;38.90;;;2.20;99.90;;;;;;5011962;28;20449;-81
2021/01/06 16:20:24;;;;;;;45.80;40.37;;;2.20;99.90;;;;;;5012908;28;20828;-81
2021/01/06 16:23:14;;;;;;;43.43;38.83;;;2.20;99.90;;;;;;5012745;28;20457;-81
2021/01/06 16:25:45;;;;;;;44.87;40.07;;;2.20;99.90;;;;;;5010353;28;20469;-81
2021/01/06 16:34:54;;;;;;;47.33;42.43;;;2.10;99.90;;;;;;5012060;28;20461;-81
2021/01/06 16:37:25;;;;;;;43.80;39.60;;;2.20;99.90;;;;;;5012516;28;20527;-81
2021/01/06 16:40:14;;;;;;;47.50;42.80;;;2.20;99.90;;;;;;4990301;28;20513;-81
2021/01/06 16:49:08;;;;;;;52.37;47.30;;;2.20;99.90;;;;;;4934800;28;20463;-81
2021/01/06 16:51:46;;;;;;;51.83;46.87;;;2.10;99.90;;;;;;4976791;28;20458;-81
2021/01/06 16:54:22;;;;;;;58.67;52.23;;;2.00;99.90;;;;;;4976342;28;20457;-82
2021/01/06 16:57:09;;;;;;;80.37;63.27;;;2.00;99.90;;;;;;4993826;28;20946;-82
2021/01/06 16:59:47;;;;;;;;;;;;;;;;;;;;;
2021/01/06 17:02:28;;;;;;;;;;;;;;;;;;;;;
2021/01/06 17:04:55;;;;;;;83.77;69.47;;;2.10;99.90;;;;;;4992209;28;21099;-81
2021/01/06 17:07:33;;;;;;;88.13;66.57;;;2.00;99.90;;;;;;4996115;28;20454;-82
2021/01/06 17:13:17;;;;;;;84.67;63.40;;;2.10;99.90;;;;;;4996377;28;20492;-82
2021/01/06 17:15:53;;;;;;;83.67;66.87;;;2.00;99.90;;;;;;4995240;28;20449;-81
2021/01/06 17:18:26;;;;;;;79.37;63.23;;;2.00;99.90;;;;;;4996495;28;20468;-80
2021/01/06 17:20:55;;;;;;;77.77;61.50;;;2.00;99.90;;;;;;4996206;28;20480;-81
2021/01/06 17:23:27;;;;;;;65.43;57.73;;;1.90;99.90;;;;;;4995991;28;20458;-82
2021/01/06 17:26:27;;;;;;;64.77;57.90;;;2.10;99.90;;;;;;4996045;28;20458;-82
2021/01/06 17:33:00;;;;;;;60.37;54.60;;;2.00;99.90;;;;;;4915008;29;20930;-82
2021/01/06 17:35:38;;;;;;;64.73;58.47;;;2.00;99.90;;;;;;4815811;29;20977;-82
2021/01/06 17:53:26;;;;;;;68.57;61.87;;;1.90;99.90;;;;;;4776376;29;21457;-82
2021/01/06 18:00:09;;;;;;;;;;;;;;;;;;;;;
2021/01/06 18:11:51;;;;;;;79.40;72.80;;;1.80;99.90;;;;;;4789190;29;20441;-82
2021/01/06 18:51:36;;;;;;;55.70;51.10;;;1.60;99.90;;;;;;4837084;29;21013;-82
2021/01/06 19:19:22;;;;;;;;;;;;;;;;;;;;;
2021/01/06 19:32:01;;;;;;;77.17;72.00;;;1.40;99.90;;;;;;4779376;30;20456;-82
2021/01/06 19:56:02;;;;;;;81.30;75.43;;;1.50;99.90;;;;;;4803500;29;20460;-82
2021/01/06 20:09:38;;;;;;;84.17;77.97;;;1.40;99.90;;;;;;4774120;29;20534;-83
2021/01/06 20:30:40;;;;;;;;;;;;;;;;;;;;;
2021/01/06 20:46:33;;;;;;;111.07;104.22;;;1.10;99.90;;;;;;4931862;28;20448;-81
2021/01/06 21:40:43;;;;;;;;;;;;;;;;;;;;;
2021/01/06 21:43:14;;;;;;;55.17;50.77;;;1.20;99.90;;;;;;4797985;29;20485;-82
2021/01/06 21:45:44;;;;;;;50.20;46.80;;;1.20;99.90;;;;;;4969725;28;20969;-81
2021/01/06 21:48:44;;;;;;;48.55;44.35;;;1.10;99.90;;;;;;4995942;28;20809;-82
2021/01/06 21:54:22;;;;;;;44.43;40.63;;;1.30;99.90;;;;;;4896984;29;20514;-83
2021/01/06 21:56:57;;;;;;;44.93;41.13;;;1.30;99.90;;;;;;4967943;28;20552;-83
2021/01/06 21:59:37;;;;;;;46.30;42.00;;;1.30;99.90;;;;;;4995469;28;20485;-82
2021/01/06 22:02:22;;;;;;;39.60;36.27;;;1.40;99.90;;;;;;4994517;28;20465;-83
2021/01/06 22:04:53;;;;;;;41.27;37.80;;;1.30;99.90;;;;;;4995481;28;20461;-82
2021/01/06 22:07:48;;;;;;;;;;;;;;;;;;;;;
2021/01/06 22:10:51;;;;;;;44.30;40.00;;;1.40;99.90;;;;;;4977834;28;20454;-82
2021/01/06 22:13:34;;;;;;;48.77;44.63;;;1.50;99.90;;;;;;4956492;28;20442;-81
2021/01/06 22:16:05;;;;;;;56.93;51.60;;;1.40;99.90;;;;;;4994065;28;20457;-81
2021/01/06 22:18:46;;;;;;;60.03;54.50;;;1.40;99.90;;;;;;4995287;28;20875;-81
2021/01/06 22:21:12;;;;;;;60.30;54.83;;;1.50;99.90;;;;;;4995146;28;20500;-82
2021/01/06 22:23:46;;;;;;;56.90;51.10;;;1.60;99.90;;;;;;4995171;28;20462;-82
2021/01/06 22:26:18;;;;;;;54.47;49.57;;;1.60;99.90;;;;;;4995337;28;20454;-81
2021/01/06 22:28:59;;;;;;;53.63;48.93;;;1.60;99.90;;;;;;4994998;28;20454;-81
2021/01/06 22:31:40;;;;;;;63.40;55.47;;;1.60;99.90;;;;;;4994132;28;20458;-81
2021/01/06 22:34:15;;;;;;;59.87;54.17;;;1.50;99.90;;;;;;4994796;28;20490;-81
2021/01/06 22:37:09;;;;;;;;;;;;;;;;;;;;;
2021/01/06 22:39:39;;;;;;;74.77;67.87;;;1.50;99.90;;;;;;4970583;28;20484;-82
2021/01/06 22:42:14;;;;;;;83.53;77.07;;;1.40;99.90;;;;;;4994608;28;20478;-82